Time;durP1;ratioP1;P1;durP2;ratioP2;P2;SDS_P1;SDS_P2;PMS_P1;PMS_P2;Temp;Humidity;BMP_temperature;BMP_pressure;BME280_temperature;BME280_humidity;BME280_pressure;Samples;Min_cycle;Max_cycle;Signal;HPM_P1;HPM_P2
2024/03/31 00:01:46;;;;;;;27.58;3.53;;;;;;;14.31;64.56;98548.09;5115199;28;20044;-68
2024/03/31 00:04:12;;;;;;;5.88;3.10;;;;;;;14.26;64.44;98544.81;5115025;28;20040;-68
2024/03/31 00:06:40;;;;;;;7.45;2.80;;;;;;;14.14;64.80;98545.22;5115301;28;20088;-68
2024/03/31 00:09:07;;;;;;;0.63;0.63;;;;;;;14.05;65.25;98545.53;5114932;28;20040;-68
2024/03/31 00:11:35;;;;;;;7.22;3.05;;;;;;;14.01;65.60;98542.22;5114667;28;20410;-68
2024/03/31 00:14:02;;;;;;;3.67;1.45;;;;;;;13.93;65.88;98535.66;5114858;28;20047;-68
2024/03/31 00:16:31;;;;;;;1.05;1.05;;;;;;;13.84;66.40;98526.56;5114579;28;20058;-67
2024/03/31 00:18:58;;;;;;;3.33;1.70;;;;;;;13.73;66.63;98531.19;5114886;28;20032;-67
2024/03/31 00:21:25;;;;;;;5.03;3.22;;;;;;;13.68;67.16;98529.63;5114783;28;20040;-68
2024/03/31 00:23:53;;;;;;;5.07;3.33;;;;;;;13.62;67.43;98527.28;5114657;28;20040;-68
2024/03/31 00:26:21;;;;;;;1.77;1.65;;;;;;;13.54;67.52;98519.81;5114633;28;20047;-68
2024/03/31 00:28:47;;;;;;;1.42;1.33;;;;;;;13.52;67.94;98513.06;5114491;28;20043;-68
2024/03/31 00:31:15;;;;;;;7.13;2.35;;;;;;;13.47;67.97;98520.91;5097494;28;20561;-68
2024/03/31 00:33:47;;;;;;;2.92;1.35;;;;;;;13.43;68.25;98520.19;5097252;28;20486;-68
2024/03/31 00:36:15;;;;;;;5.55;3.47;;;;;;;13.37;68.04;98516.94;5114584;28;20362;-69
2024/03/31 00:38:42;;;;;;;1.92;1.67;;;;;;;13.27;68.49;98521.50;5097731;28;20402;-68
2024/03/31 00:41:10;;;;;;;21.77;2.05;;;;;;;13.30;69.13;98512.88;5097514;28;20032;-68
2024/03/31 00:43:36;;;;;;;3.70;2.15;;;;;;;13.27;68.83;98513.81;5114474;28;20039;-69
2024/03/31 00:46:04;;;;;;;2.92;2.33;;;;;;;13.21;68.89;98519.13;5097233;28;20462;-68
2024/03/31 00:48:31;;;;;;;1.25;0.73;;;;;;;13.14;69.11;98512.53;5096822;28;20104;-67
2024/03/31 00:51:00;;;;;;;10.25;3.40;;;;;;;13.10;69.38;98494.72;5097108;28;20027;-68
2024/03/31 00:53:27;;;;;;;8.18;1.50;;;;;;;13.12;69.29;98504.06;5097435;28;20042;-69
2024/03/31 00:55:55;;;;;;;1.75;0.70;;;;;;;13.09;69.23;98499.00;5096911;28;20063;-68
2024/03/31 00:58:22;;;;;;;2.00;1.88;;;;;;;13.09;69.31;98499.00;5114061;28;20040;-68
2024/03/31 01:00:50;;;;;;;8.07;2.75;;;;;;;13.12;69.29;98486.13;5096845;28;20039;-68
2024/03/31 01:03:25;;;;;;;5.40;1.48;;;;;;;13.16;69.41;98480.00;5097070;28;20089;-69
2024/03/31 01:05:53;;;;;;;0.70;0.70;;;;;;;13.14;69.53;98480.94;5113943;28;20043;-68
2024/03/31 01:08:21;;;;;;;1.65;1.17;;;;;;;13.10;69.21;98477.63;5113442;28;20043;-68
2024/03/31 01:10:49;;;;;;;4.93;2.67;;;;;;;13.12;69.62;98472.47;5096926;28;20036;-68
2024/03/31 01:13:16;;;;;;;1.00;0.93;;;;;;;13.12;69.55;98473.31;5113772;28;20040;-68
2024/03/31 01:15:44;;;;;;;0.93;0.80;;;;;;;13.08;69.48;98473.44;5096521;28;20035;-68
2024/03/31 01:18:12;;;;;;;;;;;;;;;13.04;70.00;98470.09;5097489;28;20084;-68
2024/03/31 01:20:40;;;;;;;1.30;1.20;;;;;;;13.02;70.19;98471.88;5113339;28;19969;-68
2024/03/31 01:23:10;;;;;;;1.17;1.08;;;;;;;13.02;70.27;98466.75;5113596;28;20092;-68
2024/03/31 01:25:39;;;;;;;1.75;1.63;;;;;;;13.02;70.08;98469.31;5096565;28;20047;-69
2024/03/31 01:28:06;;;;;;;1.10;1.00;;;;;;;13.03;70.31;98467.59;5096721;28;20047;-68
2024/03/31 01:30:35;;;;;;;7.07;1.08;;;;;;;13.01;70.60;98462.50;5096678;28;20042;-68
2024/03/31 01:33:02;;;;;;;2.45;2.05;;;;;;;12.99;70.16;98460.88;5096535;28;20032;-68
2024/03/31 01:35:30;;;;;;;4.22;3.20;;;;;;;12.88;70.78;98463.75;5095650;28;20489;-68
2024/03/31 01:37:57;;;;;;;2.25;1.50;;;;;;;12.91;71.14;98466.22;5079618;28;20090;-68
2024/03/31 01:40:24;;;;;;;4.50;2.90;;;;;;;12.89;70.76;98460.31;5113350;28;20084;-68
2024/03/31 01:42:52;;;;;;;1.27;1.17;;;;;;;12.94;70.93;98466.13;5096384;28;20035;-68
2024/03/31 01:45:21;;;;;;;4.68;1.15;;;;;;;12.88;70.95;98448.41;5113534;28;20070;-67
2024/03/31 01:47:48;;;;;;;2.60;1.80;;;;;;;13.00;70.88;98462.56;5095691;28;20050;-68
2024/03/31 01:50:16;;;;;;;5.40;2.38;;;;;;;13.01;70.69;98465.06;5113206;28;20043;-69
2024/03/31 01:52:42;;;;;;;2.00;1.30;;;;;;;13.00;70.75;98465.97;5112890;28;20513;-68
2024/03/31 01:55:10;;;;;;;4.50;2.20;;;;;;;12.96;70.93;98456.69;5096457;28;20054;-68
2024/03/31 01:57:36;;;;;;;6.10;2.22;;;;;;;12.93;71.06;98459.34;5096132;28;20040;-68
2024/03/31 02:00:07;;;;;;;1.48;1.35;;;;;;;12.93;71.22;98467.03;5096170;28;20085;-68
2024/03/31 02:02:41;;;;;;;4.60;2.40;;;;;;;12.84;71.34;98464.72;5113205;28;20043;-68
2024/03/31 02:05:10;;;;;;;0.70;0.60;;;;;;;12.94;71.39;98483.22;5113082;28;20043;-68
2024/03/31 02:07:36;;;;;;;2.08;1.50;;;;;;;12.90;71.45;98487.59;5095979;28;20085;-68
2024/03/31 02:10:05;;;;;;;2.58;2.22;;;;;;;12.86;71.59;98480.88;5112990;28;20044;-69
2024/03/31 02:12:33;;;;;;;0.93;0.90;;;;;;;12.93;71.56;98486.69;5113078;28;20059;-68
2024/03/31 02:15:01;;;;;;;1.13;1.02;;;;;;;12.93;71.83;98491.78;5079023;28;20031;-69
2024/03/31 02:17:29;;;;;;;2.75;1.20;;;;;;;12.89;71.81;98485.91;5078891;28;20054;-68
2024/03/31 02:19:57;;;;;;;4.25;1.63;;;;;;;12.84;72.17;98482.63;5095830;28;20027;-68
2024/03/31 02:22:23;;;;;;;5.22;2.45;;;;;;;12.83;72.28;98495.50;5112882;28;20040;-68
2024/03/31 02:24:51;;;;;;;4.85;1.50;;;;;;;12.80;72.24;98493.88;5112905;28;20036;-68
2024/03/31 02:27:18;;;;;;;1.33;1.20;;;;;;;12.59;72.50;98474.00;5095594;28;20516;-68
2024/03/31 02:29:48;;;;;;;;;;;;;;;12.69;72.82;98508.69;5079926;28;20405;-68
2024/03/31 02:32:15;;;;;;;0.43;0.43;;;;;;;12.65;73.23;98512.22;5095880;28;19920;-68
2024/03/31 02:34:44;;;;;;;1.40;1.30;;;;;;;12.63;73.04;98519.09;5095779;28;20036;-68
2024/03/31 02:37:10;;;;;;;2.92;1.95;;;;;;;12.59;73.41;98518.34;5112498;28;20039;-68
2024/03/31 02:39:38;;;;;;;0.65;0.65;;;;;;;12.55;73.43;98521.00;5112393;28;20401;-68
2024/03/31 02:42:06;;;;;;;2.70;1.77;;;;;;;12.53;73.88;98512.53;5112749;28;20131;-68
2024/03/31 02:44:34;;;;;;;1.70;1.60;;;;;;;12.46;74.08;98517.00;5095507;28;20065;-68
2024/03/31 02:47:01;;;;;;;0.82;0.80;;;;;;;12.42;74.06;98515.41;5097192;28;20082;-69
2024/03/31 02:49:28;;;;;;;0.98;0.93;;;;;;;12.43;74.14;98518.81;5082502;28;20085;-69
2024/03/31 02:51:57;;;;;;;11.80;3.08;;;;;;;12.45;74.51;98514.50;5099608;28;20040;-68
2024/03/31 02:54:24;;;;;;;18.33;2.15;;;;;;;12.40;74.40;98516.34;5099593;28;20028;-68
2024/03/31 02:56:52;;;;;;;11.27;3.10;;;;;;;12.39;74.79;98510.38;5082181;28;20409;-68
2024/03/31 02:59:19;;;;;;;2.38;1.88;;;;;;;12.39;74.90;98514.66;5116474;28;20402;-68
2024/03/31 03:01:46;;;;;;;2.30;0.90;;;;;;;12.38;74.93;98515.53;5099343;28;20489;-68
2024/03/31 03:04:13;;;;;;;1.35;1.20;;;;;;;12.38;75.20;98512.97;5099275;28;20032;-68
2024/03/31 03:06:41;;;;;;;4.10;2.72;;;;;;;12.36;75.10;98514.72;5099320;28;20148;-68
2024/03/31 03:09:09;;;;;;;0.85;0.82;;;;;;;12.24;75.36;98494.59;5099099;28;20036;-68
2024/03/31 03:11:37;;;;;;;4.80;1.92;;;;;;;12.40;75.30;98512.06;5116414;28;20044;-68
2024/03/31 03:14:03;;;;;;;0.50;0.50;;;;;;;12.41;75.48;98512.88;5099182;28;20028;-68
2024/03/31 03:16:33;;;;;;;0.70;0.70;;;;;;;12.42;75.34;98512.00;5115873;28;20032;-68
2024/03/31 03:19:00;;;;;;;1.75;1.50;;;;;;;12.40;75.57;98511.22;5115640;28;20035;-68
2024/03/31 03:21:28;;;;;;;0.75;0.75;;;;;;;12.43;75.40;98521.38;5099000;28;20054;-68
2024/03/31 03:23:54;;;;;;;6.20;4.43;;;;;;;12.45;75.54;98512.75;5115930;28;20127;-68
2024/03/31 03:26:24;;;;;;;0.93;0.88;;;;;;;12.45;75.50;98517.06;5099446;28;20501;-68
2024/03/31 03:28:50;;;;;;;0.50;0.50;;;;;;;12.42;75.70;98512.00;5098814;28;20118;-68
2024/03/31 03:31:18;;;;;;;1.58;1.48;;;;;;;12.42;75.74;98509.44;5115675;28;20043;-68
2024/03/31 03:33:47;;;;;;;0.70;0.70;;;;;;;12.42;75.87;98509.44;5099392;28;20043;-68
2024/03/31 03:36:14;;;;;;;1.50;1.02;;;;;;;12.42;75.67;98514.56;5098453;28;20039;-68
2024/03/31 03:38:44;;;;;;;2.50;1.35;;;;;;;12.41;75.81;98518.00;5098776;28;20032;-68
2024/03/31 03:41:18;;;;;;;9.43;1.92;;;;;;;12.40;75.75;98526.56;5099477;28;20077;-68
2024/03/31 03:43:47;;;;;;;0.47;0.47;;;;;;;12.40;75.95;98517.19;5098830;28;20496;-68
2024/03/31 03:46:14;;;;;;;1.30;1.20;;;;;;;12.41;76.05;98502.63;5098544;28;20048;-68
2024/03/31 03:48:42;;;;;;;1.05;1.00;;;;;;;12.38;76.13;98513.78;5114968;28;20086;-68
2024/03/31 03:51:09;;;;;;;1.48;1.15;;;;;;;12.34;76.26;98511.38;5098348;28;20035;-67
2024/03/31 03:53:37;;;;;;;3.08;1.90;;;;;;;12.26;76.54;98500.50;5081473;28;20067;-68
2024/03/31 03:56:05;;;;;;;1.15;1.08;;;;;;;12.31;76.54;98516.59;5114839;28;20047;-68
2024/03/31 03:58:33;;;;;;;2.05;1.20;;;;;;;12.32;76.37;98520.81;5098434;28;20089;-69
2024/03/31 04:01:01;;;;;;;0.80;0.80;;;;;;;12.31;76.43;98526.81;5098424;28;20044;-69
2024/03/31 04:03:29;;;;;;;1.00;0.93;;;;;;;12.27;76.61;98527.75;5098187;28;20061;-68
2024/03/31 04:05:56;;;;;;;1.10;1.00;;;;;;;12.26;76.71;98526.09;5098083;28;20070;-68
2024/03/31 04:08:24;;;;;;;1.02;1.00;;;;;;;12.29;76.73;98524.28;5097881;28;20028;-68
2024/03/31 04:10:51;;;;;;;0.47;0.47;;;;;;;12.34;76.54;98522.44;5098059;28;20096;-69
2024/03/31 04:13:18;;;;;;;0.73;0.73;;;;;;;12.34;76.44;98527.56;5097949;28;20082;-68
2024/03/31 04:15:55;;;;;;;1.23;1.13;;;;;;;12.43;76.28;98516.25;5097447;28;20085;-68
2024/03/31 04:18:25;;;;;;;4.97;2.15;;;;;;;12.73;75.21;98515.41;5098058;28;20130;-67
2024/03/31 04:20:52;;;;;;;0.63;0.63;;;;;;;13.14;72.87;98522.78;5097912;28;20038;-68
2024/03/31 04:23:19;;;;;;;5.45;3.10;;;;;;;13.69;68.84;98526.19;5097712;28;20105;-68
2024/03/31 04:25:47;;;;;;;1.02;1.02;;;;;;;14.15;66.12;98521.25;5114442;28;20051;-68
2024/03/31 04:28:15;;;;;;;2.80;1.88;;;;;;;14.35;64.64;98528.31;5097881;28;20168;-68
2024/03/31 04:30:43;;;;;;;2.47;0.55;;;;;;;14.38;64.40;98523.91;5114639;28;20047;-69
2024/03/31 04:33:10;;;;;;;0.90;0.90;;;;;;;14.28;64.85;98543.03;5080584;28;20076;-69
2024/03/31 04:35:41;;;;;;;1.13;1.02;;;;;;;14.13;66.12;98548.69;5097554;28;20039;-69
2024/03/31 04:38:08;;;;;;;1.02;0.95;;;;;;;13.87;66.87;98551.25;5097599;28;20044;-68
2024/03/31 04:40:36;;;;;;;2.33;1.70;;;;;;;13.75;67.72;98556.78;5080621;28;20047;-69
2024/03/31 04:43:03;;;;;;;1.45;1.30;;;;;;;13.63;68.21;98552.03;5097412;28;20036;-68
2024/03/31 04:45:35;;;;;;;9.35;3.08;;;;;;;13.55;68.33;98559.97;5114401;28;20050;-68
2024/03/31 04:48:02;;;;;;;1.45;0.82;;;;;;;13.43;69.14;98566.31;5097051;28;20588;-69
2024/03/31 04:50:31;;;;;;;0.85;0.85;;;;;;;13.37;69.33;98556.22;5113897;28;20039;-69
2024/03/31 04:52:59;;;;;;;0.60;0.60;;;;;;;13.39;69.26;98569.81;5097201;28;20043;-68
2024/03/31 04:55:27;;;;;;;0.68;0.68;;;;;;;13.34;69.42;98566.56;5114335;28;20051;-69
2024/03/31 04:57:56;;;;;;;0.95;0.93;;;;;;;13.29;70.31;98568.41;5097386;28;20044;-68
2024/03/31 05:00:24;;;;;;;0.60;0.60;;;;;;;13.26;70.40;98558.28;5097194;28;20063;-69
2024/03/31 05:02:51;;;;;;;6.88;1.98;;;;;;;13.25;70.55;98561.72;5097030;28;20604;-68
2024/03/31 05:05:18;;;;;;;1.65;1.35;;;;;;;13.27;70.48;98549.69;5113737;28;20042;-68
2024/03/31 05:07:45;;;;;;;1.10;1.00;;;;;;;13.32;70.22;98547.00;5113802;28;20122;-69
2024/03/31 05:10:14;;;;;;;0.50;0.50;;;;;;;13.38;70.10;98547.66;5095814;28;20047;-69
2024/03/31 05:12:41;;;;;;;1.02;1.02;;;;;;;13.54;68.83;98553.16;5096894;28;20035;-69
2024/03/31 05:15:09;;;;;;;1.20;1.10;;;;;;;13.66;67.74;98549.38;5096692;28;20036;-69
2024/03/31 05:17:36;;;;;;;0.77;0.77;;;;;;;13.73;66.74;98553.41;5113366;28;20040;-69
2024/03/31 05:20:04;;;;;;;3.03;1.95;;;;;;;13.91;65.22;98547.72;5113704;28;20063;-69
2024/03/31 05:22:31;;;;;;;1.48;1.38;;;;;;;14.13;63.33;98546.13;5096804;28;20130;-69
2024/03/31 05:24:59;;;;;;;2.75;2.35;;;;;;;14.23;62.74;98550.03;5096420;28;20043;-68
2024/03/31 05:27:29;;;;;;;0.93;0.93;;;;;;;14.35;62.07;98549.66;5113191;28;20386;-69
2024/03/31 05:29:57;;;;;;;1.92;1.83;;;;;;;14.41;61.93;98554.59;5113523;28;20071;-69
2024/03/31 05:32:24;;;;;;;8.10;3.10;;;;;;;14.47;61.59;98558.66;5113506;28;20085;-69
2024/03/31 05:35:01;;;;;;;2.42;2.22;;;;;;;14.48;62.54;98565.50;5113268;28;20370;-68
2024/03/31 05:37:28;;;;;;;0.70;0.65;;;;;;;14.50;62.40;98569.69;5096025;28;20131;-69
2024/03/31 08:20:39;;;;;;;0.40;0.40;;;;;;;19.18;40.48;98469.66;5132960;27;20442;-67
2024/03/31 08:23:06;;;;;;;1.45;1.35;;;;;;;19.27;40.57;98457.06;5147826;27;20040;-67
2024/03/31 08:25:37;;;;;;;2.08;1.85;;;;;;;19.41;39.59;98458.94;5130858;28;20051;-66
2024/03/31 08:28:04;;;;;;;0.70;0.70;;;;;;;19.41;38.41;98435.63;5130963;28;20098;-67
2024/03/31 08:30:32;;;;;;;1.23;1.13;;;;;;;19.56;38.56;98445.09;5096491;28;20412;-68
2024/03/31 08:32:59;;;;;;;0.57;0.57;;;;;;;19.72;38.63;98455.44;5131131;28;20042;-68
2024/03/31 08:35:26;;;;;;;8.50;2.42;;;;;;;19.74;38.25;98480.31;5096588;28;20102;-67
2024/03/31 08:37:55;;;;;;;1.15;1.08;;;;;;;19.77;38.01;98485.31;5130485;28;20578;-67
2024/03/31 08:40:25;;;;;;;;;;;;;;;19.85;37.80;98490.03;5113761;28;20515;-67
2024/03/31 08:42:59;;;;;;;1.10;1.00;;;;;;;19.90;39.50;98486.28;5113406;28;19919;-68
2024/03/31 08:45:27;;;;;;;1.45;1.35;;;;;;;19.89;39.23;98489.78;5112841;28;20552;-69
2024/03/31 08:47:58;;;;;;;1.60;0.85;;;;;;;19.96;38.98;98511.81;5130139;28;20039;-67
2024/03/31 08:50:26;;;;;;;0.82;0.82;;;;;;;20.01;38.80;98498.63;5130642;28;20051;-67
2024/03/31 08:52:54;;;;;;;3.95;1.25;;;;;;;20.06;37.83;98475.84;5147321;27;20035;-66
2024/03/31 08:55:22;;;;;;;1.05;0.95;;;;;;;20.14;38.69;98472.81;5130160;28;20494;-68
2024/03/31 08:57:49;;;;;;;2.17;1.35;;;;;;;20.26;38.25;98466.94;5130334;28;20138;-67
2024/03/31 09:00:17;;;;;;;2.50;1.48;;;;;;;20.27;38.17;98479.00;5129916;28;20088;-67
2024/03/31 09:02:43;;;;;;;1.08;0.98;;;;;;;20.43;38.54;98475.41;5130595;28;20056;-67
2024/03/31 09:05:11;;;;;;;0.95;0.95;;;;;;;20.51;37.88;98490.50;5130161;28;20089;-68
2024/03/31 09:07:38;;;;;;;1.15;0.93;;;;;;;20.53;38.47;98493.81;5130152;28;20506;-67
2024/03/31 09:10:08;;;;;;;0.57;0.57;;;;;;;20.53;38.36;98473.09;5129881;28;20397;-67
2024/03/31 09:12:36;;;;;;;6.22;1.95;;;;;;;20.49;38.94;98448.28;5130155;28;20043;-66
2024/03/31 09:15:04;;;;;;;0.95;0.88;;;;;;;20.76;38.73;98469.91;5129792;28;20042;-67
2024/03/31 09:17:33;;;;;;;2.33;1.58;;;;;;;20.83;38.83;98473.00;5129739;28;20515;-67
2024/03/31 09:20:03;;;;;;;0.75;0.75;;;;;;;20.90;39.00;98479.47;5129452;28;20055;-66
2024/03/31 09:22:30;;;;;;;0.88;0.70;;;;;;;20.94;38.76;98481.78;5129665;28;20450;-68
2024/03/31 09:24:58;;;;;;;0.70;0.70;;;;;;;21.08;39.73;98474.00;5130186;28;20126;-68
2024/03/31 09:27:26;;;;;;;0.50;0.50;;;;;;;21.25;39.21;98468.56;5112475;28;20070;-67
2024/03/31 09:29:58;;;;;;;1.63;1.52;;;;;;;21.33;38.83;98475.88;5127929;28;20542;-67
2024/03/31 09:32:25;;;;;;;0.50;0.50;;;;;;;21.38;39.44;98482.44;5115987;28;20150;-66
2024/03/31 09:34:53;;;;;;;4.15;2.75;;;;;;;21.53;39.64;98472.00;5115959;28;20089;-67
2024/03/31 09:37:20;;;;;;;0.85;0.85;;;;;;;21.62;38.65;98474.03;5115501;28;20038;-67
2024/03/31 09:39:48;;;;;;;2.92;2.30;;;;;;;21.76;39.13;98476.53;5115364;28;20501;-66
2024/03/31 09:42:15;;;;;;;0.75;0.75;;;;;;;21.79;38.28;98471.97;5115444;28;20588;-67
2024/03/31 09:44:45;;;;;;;4.18;1.95;;;;;;;21.94;39.08;98475.34;5115837;28;20036;-69
2024/03/31 09:47:22;;;;;;;2.25;2.03;;;;;;;22.06;38.87;98479.75;5115528;28;20071;-67
2024/03/31 09:50:03;;;;;;;1.25;0.95;;;;;;;22.20;38.89;98477.06;5098674;28;20063;-69
2024/03/31 09:52:32;;;;;;;1.13;1.02;;;;;;;22.40;37.40;98473.09;5115231;28;20078;-68
2024/03/31 09:55:09;;;;;;;0.82;0.82;;;;;;;22.42;38.43;98477.28;5115614;28;20093;-67
2024/03/31 09:57:41;;;;;;;2.05;1.70;;;;;;;22.43;37.75;98489.34;5115536;28;20043;-67
2024/03/31 10:00:14;;;;;;;1.85;1.67;;;;;;;22.33;37.20;98457.09;5115449;28;20074;-67
2024/03/31 10:02:48;;;;;;;0.82;0.77;;;;;;;22.27;36.74;98454.06;5115094;28;20043;-67
2024/03/31 10:05:21;;;;;;;3.22;1.85;;;;;;;22.28;36.73;98464.38;5115457;28;20058;-68
2024/03/31 10:07:48;;;;;;;2.35;1.88;;;;;;;22.44;37.24;98462.41;5115321;28;20050;-68
2024/03/31 10:10:17;;;;;;;1.05;0.88;;;;;;;22.60;37.57;98468.19;5115182;28;20047;-67
2024/03/31 10:12:45;;;;;;;9.27;2.47;;;;;;;22.64;37.89;98461.91;5098325;28;20069;-68
2024/03/31 10:15:16;;;;;;;11.77;1.52;;;;;;;22.62;37.88;98462.94;5115177;28;20043;-67
2024/03/31 10:17:45;;;;;;;5.85;2.28;;;;;;;22.55;37.07;98456.47;5098172;28;20061;-69
2024/03/31 10:20:14;;;;;;;6.32;2.47;;;;;;;22.41;37.78;98472.19;5097743;28;20044;-68
2024/03/31 10:22:43;;;;;;;5.43;2.88;;;;;;;22.44;38.00;98470.19;5115050;28;20043;-68
2024/03/31 10:25:11;;;;;;;0.85;0.85;;;;;;;22.42;37.67;98451.28;5097981;28;20126;-67
2024/03/31 10:27:40;;;;;;;4.20;2.15;;;;;;;22.34;37.60;98460.53;5080954;28;20047;-69
2024/03/31 10:30:09;;;;;;;2.33;1.52;;;;;;;22.24;38.15;98462.09;5115428;28;20065;-68
2024/03/31 10:32:38;;;;;;;8.18;2.60;;;;;;;22.24;38.10;98442.13;5098160;28;20097;-68
2024/03/31 10:35:07;;;;;;;2.83;2.50;;;;;;;22.57;38.26;98446.78;5114861;28;20046;-67
2024/03/31 10:37:35;;;;;;;0.75;0.75;;;;;;;22.92;37.62;98455.59;5114738;28;20039;-68
2024/03/31 10:40:06;;;;;;;3.38;1.67;;;;;;;23.12;37.09;98462.00;5114326;28;20035;-66
2024/03/31 10:42:34;;;;;;;5.13;1.52;;;;;;;23.22;36.96;98455.19;5113354;28;20073;-68
2024/03/31 10:45:04;;;;;;;2.80;2.25;;;;;;;23.25;36.77;98455.00;5114573;28;20104;-66
2024/03/31 10:47:32;;;;;;;11.80;2.47;;;;;;;23.32;36.34;98444.00;5097515;28;20036;-68
2024/03/31 10:50:03;;;;;;;4.65;2.45;;;;;;;23.15;36.09;98444.41;5114453;28;20039;-67
2024/03/31 10:52:31;;;;;;;4.85;2.95;;;;;;;23.04;36.44;98433.06;5097378;28;20052;-68
2024/03/31 10:55:01;;;;;;;3.40;2.38;;;;;;;23.03;37.29;98434.03;5097698;28;20077;-69
2024/03/31 10:57:34;;;;;;;;;;;;;;;23.08;36.59;98430.13;5115037;28;20067;-67
2024/03/31 11:00:03;;;;;;;0.73;0.73;;;;;;;23.02;36.78;98434.94;5114109;28;19927;-68
2024/03/31 11:02:33;;;;;;;5.63;1.87;;;;;;;22.89;37.90;98444.59;5113886;28;20035;-67
2024/03/31 11:05:04;;;;;;;2.22;1.55;;;;;;;22.76;38.19;98448.97;5114303;28;20051;-68
2024/03/31 11:07:34;;;;;;;2.28;1.85;;;;;;;22.67;38.12;98435.66;5114111;28;20085;-68
2024/03/31 11:10:03;;;;;;;1.30;1.17;;;;;;;22.53;38.09;98440.94;5113826;28;20546;-69
2024/03/31 11:12:30;;;;;;;3.85;2.22;;;;;;;22.31;39.48;98419.97;5114037;28;20097;-69
2024/03/31 11:14:58;;;;;;;6.25;2.90;;;;;;;22.45;38.60;98442.44;5114340;28;20039;-69
2024/03/31 11:17:26;;;;;;;3.35;1.42;;;;;;;22.45;38.42;98430.25;5113985;28;20048;-66
2024/03/31 11:19:54;;;;;;;12.20;3.40;;;;;;;22.48;38.01;98445.63;5113364;28;20518;-67
2024/03/31 11:22:23;;;;;;;5.70;3.07;;;;;;;22.47;37.75;98459.59;5113919;28;20043;-68
2024/03/31 11:24:52;;;;;;;1.95;1.85;;;;;;;22.48;36.90;98445.63;5096801;28;20039;-68
2024/03/31 11:27:18;;;;;;;13.45;1.88;;;;;;;22.51;37.43;98453.22;5096842;28;20039;-68
2024/03/31 11:29:47;;;;;;;1.67;1.58;;;;;;;22.58;36.58;98462.28;5096625;28;20036;-66
2024/03/31 11:32:15;;;;;;;4.70;2.60;;;;;;;22.72;37.00;98452.72;5113780;28;20035;-69
2024/03/31 11:34:46;;;;;;;2.22;1.75;;;;;;;22.75;36.38;98458.53;5113564;28;20035;-65
2024/03/31 11:37:13;;;;;;;12.00;2.30;;;;;;;22.71;36.42;98464.06;5113644;28;20555;-67
2024/03/31 11:39:42;;;;;;;1.75;1.15;;;;;;;22.62;36.62;98457.75;5113487;28;20410;-68
2024/03/31 11:42:09;;;;;;;3.13;1.58;;;;;;;22.34;37.92;98437.94;5113510;28;20070;-67
2024/03/31 11:44:39;;;;;;;6.82;1.90;;;;;;;22.44;38.45;98467.59;5113279;28;20397;-68
2024/03/31 11:47:07;;;;;;;5.18;2.55;;;;;;;22.41;37.87;98459.19;5113539;28;20063;-68
2024/03/31 11:49:36;;;;;;;1.52;1.42;;;;;;;22.40;38.07;98460.94;5113378;28;20100;-68
2024/03/31 11:52:04;;;;;;;6.32;2.63;;;;;;;22.44;37.64;98454.59;5112896;28;20516;-68
2024/03/31 11:54:31;;;;;;;1.17;1.02;;;;;;;22.47;38.00;98449.19;5096070;28;20035;-67
2024/03/31 11:57:03;;;;;;;6.50;3.58;;;;;;;22.44;38.17;98444.19;5113005;28;20035;-67
2024/03/31 11:59:30;;;;;;;2.45;1.77;;;;;;;22.38;37.55;98448.97;5096295;28;20031;-65
2024/03/31 12:01:58;;;;;;;2.60;1.60;;;;;;;22.34;38.06;98430.16;5113292;28;20036;-66
2024/03/31 12:04:26;;;;;;;1.52;1.25;;;;;;;22.33;38.63;98438.06;5113268;28;20035;-67
2024/03/31 12:06:53;;;;;;;11.50;1.52;;;;;;;22.40;38.02;98428.91;5113448;28;20040;-68
2024/03/31 12:09:23;;;;;;;1.67;1.38;;;;;;;22.45;37.45;98419.88;5113107;28;20501;-68
2024/03/31 12:11:50;;;;;;;4.78;2.55;;;;;;;22.40;36.87;98406.34;5113731;28;20445;-68
2024/03/31 12:14:20;;;;;;;2.55;1.98;;;;;;;22.49;36.86;98420.47;5113097;28;20035;-68
2024/03/31 12:16:46;;;;;;;1.95;1.75;;;;;;;22.59;37.53;98424.94;5113407;28;20062;-66
2024/03/31 12:19:14;;;;;;;1.73;1.50;;;;;;;22.73;37.76;98407.53;5095696;28;20137;-67
2024/03/31 12:21:42;;;;;;;6.45;2.55;;;;;;;22.77;36.67;98398.59;5113177;28;20071;-67
2024/03/31 12:24:10;;;;;;;1.75;1.55;;;;;;;22.80;36.83;98398.38;5113068;28;20047;-68
2024/03/31 12:26:38;;;;;;;1.67;1.50;;;;;;;22.84;36.86;98397.22;5112959;28;20093;-67
2024/03/31 12:29:06;;;;;;;0.60;0.60;;;;;;;22.82;37.80;98401.72;5112972;28;20051;-70
2024/03/31 12:31:35;;;;;;;1.85;1.50;;;;;;;22.97;37.37;98404.03;5112889;28;20040;-67
2024/03/31 12:34:02;;;;;;;1.77;1.10;;;;;;;23.25;37.45;98400.31;5079140;28;20118;-68
2024/03/31 12:36:29;;;;;;;1.83;1.08;;;;;;;23.44;37.04;98411.06;5112844;28;20432;-66
2024/03/31 12:38:57;;;;;;;0.85;0.85;;;;;;;23.51;37.41;98401.03;5112842;28;20066;-67
2024/03/31 12:41:24;;;;;;;2.15;1.30;;;;;;;23.63;37.57;98400.97;5112551;28;20036;-67
2024/03/31 12:43:51;;;;;;;15.30;3.03;;;;;;;23.71;36.13;98401.19;5112793;28;20040;-68
2024/03/31 12:46:18;;;;;;;1.27;1.00;;;;;;;23.63;35.33;98420.97;5112816;28;20043;-65
2024/03/31 12:48:48;;;;;;;3.00;1.90;;;;;;;23.46;35.33;98414.41;5112681;28;20095;-68
2024/03/31 12:51:21;;;;;;;0.77;0.77;;;;;;;23.41;35.24;98416.50;5112816;28;20046;-67
2024/03/31 12:53:49;;;;;;;6.05;2.08;;;;;;;23.36;35.96;98408.19;5112030;28;20112;-67
2024/03/31 12:56:18;;;;;;;0.82;0.82;;;;;;;23.19;37.13;98395.53;5112767;28;20432;-67
2024/03/31 12:58:49;;;;;;;6.00;2.80;;;;;;;23.08;38.21;98413.72;5112708;28;20044;-69
2024/03/31 13:01:19;;;;;;;2.08;1.63;;;;;;;22.91;36.71;98414.06;5112416;28;20044;-67
2024/03/31 13:03:48;;;;;;;1.77;1.17;;;;;;;22.70;36.78;98413.00;5112706;28;20040;-67
2024/03/31 13:06:14;;;;;;;;;;;;;;;22.71;36.68;98414.63;5114615;28;20052;-66
2024/03/31 13:08:45;;;;;;;2.70;2.40;;;;;;;22.64;36.80;98396.88;5099522;28;19920;-68
2024/03/31 13:11:12;;;;;;;3.17;1.42;;;;;;;22.60;36.21;98423.97;5116527;28;20055;-67
2024/03/31 13:13:41;;;;;;;12.35;1.42;;;;;;;22.47;37.10;98402.38;5116383;28;20036;-66
2024/03/31 13:16:08;;;;;;;1.52;1.42;;;;;;;22.40;37.01;98401.16;5116035;28;20124;-66
2024/03/31 13:18:36;;;;;;;17.08;4.40;;;;;;;22.46;37.89;98403.31;5116004;28;20054;-66
2024/03/31 13:21:06;;;;;;;1.42;1.33;;;;;;;22.46;38.26;98399.88;5116280;28;20044;-67
2024/03/31 13:23:34;;;;;;;0.98;0.85;;;;;;;22.41;37.94;98389.78;5099266;28;20039;-67
2024/03/31 13:26:02;;;;;;;6.55;2.05;;;;;;;22.41;38.50;98392.38;5116233;28;20044;-66
2024/03/31 13:28:31;;;;;;;3.58;2.22;;;;;;;22.41;38.88;98397.59;5082129;28;20036;-68
2024/03/31 13:30:58;;;;;;;3.45;1.80;;;;;;;22.25;39.16;98381.38;5098983;28;20078;-68
2024/03/31 13:33:26;;;;;;;1.30;1.13;;;;;;;22.24;38.78;98394.50;5115944;28;20392;-68
2024/03/31 13:35:53;;;;;;;3.33;2.33;;;;;;;22.16;38.88;98392.44;5115987;28;20493;-66
2024/03/31 13:38:22;;;;;;;2.28;2.00;;;;;;;22.09;38.79;98391.19;5115921;28;20485;-68
2024/03/31 13:40:49;;;;;;;1.52;1.42;;;;;;;22.03;38.90;98391.59;5115640;28;20031;-68
2024/03/31 13:43:17;;;;;;;3.05;2.05;;;;;;;22.01;38.35;98388.25;5115837;28;20130;-68
2024/03/31 13:45:43;;;;;;;0.93;0.90;;;;;;;21.97;38.38;98386.81;5098478;28;20036;-67
2024/03/31 13:48:11;;;;;;;2.05;1.83;;;;;;;21.96;38.48;98385.13;5115662;28;20039;-67
2024/03/31 13:50:37;;;;;;;2.42;1.65;;;;;;;22.00;38.77;98386.63;5115609;28;20043;-68
2024/03/31 13:53:06;;;;;;;2.63;1.70;;;;;;;22.00;38.96;98397.00;5115585;28;20043;-67
2024/03/31 13:55:34;;;;;;;1.73;1.42;;;;;;;22.00;38.66;98397.00;5115639;28;20038;-68
2024/03/31 13:58:02;;;;;;;4.00;1.85;;;;;;;21.96;39.55;98385.13;5115412;28;20044;-68
2024/03/31 14:00:29;;;;;;;0.65;0.65;;;;;;;21.87;40.34;98380.56;5115211;28;20413;-67
2024/03/31 14:02:57;;;;;;;1.58;1.35;;;;;;;21.83;39.75;98394.69;5115410;28;20548;-67
2024/03/31 14:05:24;;;;;;;3.40;0.95;;;;;;;21.78;38.93;98386.34;5115370;28;20036;-67
2024/03/31 14:07:51;;;;;;;1.60;1.50;;;;;;;21.78;38.83;98386.34;5115388;28;20401;-68
2024/03/31 14:10:18;;;;;;;5.10;2.20;;;;;;;21.74;38.95;98390.09;5115322;28;20097;-68
2024/03/31 14:12:47;;;;;;;3.70;1.05;;;;;;;21.73;38.94;98386.66;5115239;28;20063;-68
2024/03/31 14:15:14;;;;;;;3.95;2.15;;;;;;;21.73;38.93;98383.22;5115399;28;20362;-68
2024/03/31 14:17:42;;;;;;;0.93;0.90;;;;;;;21.68;39.16;98380.94;5115071;28;20036;-68
2024/03/31 14:20:09;;;;;;;9.88;2.88;;;;;;;21.67;38.63;98383.63;5114602;28;20043;-68